createdAt,value
2022-09-14T00:01:14.403Z,26.50
2022-09-14T00:05:18.126Z,29.75
2022-09-14T00:09:23.310Z,33.45
2022-09-14T00:13:58.041Z,27.77
2022-09-14T00:18:01.055Z,28.27
2022-09-14T00:22:06.756Z,28.60
2022-09-14T00:26:12.551Z,26.13
2022-09-14T00:30:15.671Z,21.33
2022-09-14T00:34:19.175Z,24.58
2022-09-14T00:38:23.642Z,21.50
2022-09-14T00:42:26.664Z,17.02
2022-09-14T00:46:31.720Z,24.27
2022-09-14T00:51:05.621Z,22.42
2022-09-14T00:55:13.003Z,22.05
2022-09-14T00:59:20.339Z,19.27
2022-09-14T01:03:23.726Z,22.10
2022-09-14T01:08:02.201Z,15.90
2022-09-14T01:12:18.286Z,14.80
2022-09-14T01:16:30.516Z,17.25
2022-09-14T01:20:38.941Z,24.50
2022-09-14T01:25:15.365Z,17.27
2022-09-14T01:29:26.290Z,22.05
2022-09-14T01:33:33.680Z,16.55
2022-09-14T01:37:42.582Z,25.67
2022-09-14T01:41:47.641Z,20.63
2022-09-14T01:46:26.046Z,20.65
2022-09-14T01:50:35.891Z,23.60
2022-09-14T01:54:43.661Z,32.85
2022-09-14T01:58:50.162Z,30.58
2022-09-14T02:02:58.193Z,28.55
2022-09-14T02:07:01.362Z,27.27
2022-09-14T02:11:04.546Z,26.42
2022-09-14T02:15:41.449Z,31.55
2022-09-14T02:19:51.201Z,26.75
2022-09-14T02:23:55.253Z,34.17
2022-09-14T02:27:58.354Z,39.28
2022-09-14T02:32:11.326Z,32.75
2022-09-14T02:36:23.673Z,32.13
2022-09-14T02:40:33.825Z,29.58
2022-09-14T02:45:05.425Z,30.27
2022-09-14T02:49:17.369Z,32.75
2022-09-14T02:53:28.373Z,28.15
2022-09-14T02:57:31.487Z,25.25
2022-09-14T03:01:34.903Z,24.73
2022-09-14T03:06:08.957Z,29.85
2022-09-14T03:10:13.365Z,30.20
2022-09-14T03:14:16.372Z,29.42
2022-09-14T03:18:19.816Z,24.48
2022-09-14T03:22:53.501Z,25.05
2022-09-14T03:26:57.926Z,23.02
2022-09-14T03:31:02.785Z,23.17
2022-09-14T03:35:06.850Z,23.42
2022-09-14T03:39:40.682Z,28.50
2022-09-14T03:43:45.921Z,20.75
2022-09-14T03:47:49.419Z,30.02
2022-09-14T03:51:55.324Z,35.45
2022-09-14T03:56:27.354Z,28.67
2022-09-14T04:00:32.356Z,30.98
2022-09-14T04:04:35.404Z,34.15
2022-09-14T04:08:41.380Z,31.92
2022-09-14T04:12:44.418Z,30.13
2022-09-14T04:16:48.961Z,30.15
2022-09-14T04:20:56.484Z,29.63
2022-09-14T04:24:59.594Z,26.05
2022-09-14T04:29:02.856Z,35.15
2022-09-14T04:33:07.374Z,32.00
2022-09-14T04:37:10.430Z,34.88
2022-09-14T04:41:47.212Z,32.42
2022-09-14T04:45:50.267Z,35.90
2022-09-14T04:49:54.758Z,37.00
2022-09-14T04:53:59.448Z,37.00
2022-09-14T04:58:02.787Z,31.35
2022-09-14T05:02:06.081Z,28.90
2022-09-14T05:06:12.562Z,32.00
2022-09-14T05:10:15.749Z,29.40
2022-09-14T05:14:19.200Z,34.00
2022-09-14T05:18:22.280Z,37.53
2022-09-14T05:23:00.445Z,36.20
2022-09-14T05:27:03.529Z,40.15
2022-09-14T05:31:08.220Z,46.17
2022-09-14T05:35:11.390Z,46.40
2022-09-14T05:39:47.032Z,43.85
2022-09-14T05:43:50.141Z,44.25
2022-09-14T05:47:53.356Z,36.35
2022-09-14T05:51:56.417Z,40.65
2022-09-14T05:56:35.170Z,33.03
2022-09-14T06:00:39.558Z,41.45
2022-09-14T06:04:42.781Z,32.70
2022-09-14T06:09:19.602Z,32.35
2022-09-14T06:13:24.432Z,34.05
2022-09-14T06:17:27.792Z,26.92
2022-09-14T06:21:32.464Z,35.40
2022-09-14T06:25:35.463Z,37.17
2022-09-14T06:29:39.931Z,32.40
2022-09-14T06:33:45.733Z,33.72
2022-09-14T06:38:19.529Z,36.85
2022-09-14T06:42:22.515Z,29.60
2022-09-14T06:46:29.360Z,29.52
2022-09-14T06:50:32.195Z,29.73
2022-09-14T06:54:35.382Z,27.77
2022-09-14T06:58:38.482Z,27.77
2022-09-14T07:02:42.681Z,15.93
2022-09-14T07:06:46.910Z,16.17
2022-09-14T07:10:57.209Z,18.85
2022-09-14T07:15:00.119Z,18.77
2022-09-14T07:19:07.062Z,14.45
2022-09-14T07:23:38.502Z,14.35
2022-09-14T07:27:41.297Z,13.13
2022-09-14T07:31:45.952Z,13.57
2022-09-14T07:36:20.993Z,16.08
2022-09-14T07:40:24.005Z,12.15
2022-09-14T07:44:27.249Z,20.02
2022-09-14T07:48:30.043Z,15.45
2022-09-14T07:52:38.562Z,18.88
2022-09-14T07:56:42.739Z,15.23
2022-09-14T08:00:45.721Z,17.80
2022-09-14T08:04:48.797Z,14.93
2022-09-14T08:09:27.853Z,17.92
2022-09-14T08:13:30.921Z,17.80
2022-09-14T08:17:33.784Z,17.42
2022-09-14T08:22:10.366Z,20.90
2022-09-14T08:26:16.951Z,20.58
2022-09-14T08:30:19.919Z,23.38
2022-09-14T08:34:56.928Z,25.60
2022-09-14T08:39:01.281Z,25.33
2022-09-14T08:43:05.889Z,29.02
2022-09-14T08:47:13.629Z,26.08
2022-09-14T08:51:18.132Z,27.10
2022-09-14T08:55:54.853Z,25.08
2022-09-14T09:00:08.220Z,23.25
2022-09-14T09:04:27.368Z,26.23
2022-09-14T09:08:35.997Z,21.52
2022-09-14T09:12:43.140Z,22.73
2022-09-14T09:16:50.587Z,21.83
2022-09-14T09:21:22.606Z,19.13
2022-09-14T09:25:31.634Z,25.90
2022-09-14T09:29:34.481Z,18.60
2022-09-14T09:33:38.706Z,21.60
2022-09-14T09:37:42.191Z,23.13
2022-09-14T09:41:48.583Z,23.58
2022-09-14T09:45:55.785Z,28.58
2022-09-14T09:50:02.150Z,29.25
2022-09-14T09:54:10.291Z,28.20
2022-09-14T09:58:28.209Z,29.33
2022-09-14T10:02:32.711Z,23.48
2022-09-14T10:07:20.775Z,16.40
2022-09-14T10:11:31.369Z,16.13
2022-09-14T10:15:36.573Z,13.32
2022-09-14T10:20:21.438Z,12.98
2022-09-14T10:24:25.665Z,9.52
2022-09-14T10:28:30.155Z,9.07
2022-09-14T10:32:34.620Z,9.73
2022-09-14T10:37:13.888Z,12.15
2022-09-14T10:41:31.082Z,10.60
2022-09-14T10:45:37.092Z,5.25
2022-09-14T10:50:21.892Z,5.30
2022-09-14T10:54:45.306Z,7.13
2022-09-14T10:59:06.873Z,6.75
2022-09-14T11:03:28.651Z,8.57
2022-09-14T11:07:38.957Z,9.00
2022-09-14T11:11:53.621Z,5.28
2022-09-14T11:16:03.214Z,4.60
2022-09-14T11:20:18.439Z,4.07
2022-09-14T11:24:45.087Z,6.28
2022-09-14T11:28:53.999Z,4.32
2022-09-14T11:33:31.192Z,3.95
2022-09-14T11:37:41.159Z,4.70
2022-09-14T11:41:49.352Z,3.25
2022-09-14T11:45:56.200Z,4.47
2022-09-14T11:50:06.413Z,3.88
2022-09-14T11:54:26.262Z,2.90
2022-09-14T11:58:30.930Z,7.07
2022-09-14T12:03:02.698Z,3.28
2022-09-14T12:07:06.908Z,3.95
2022-09-14T12:11:40.370Z,3.78
2022-09-14T12:15:45.078Z,3.13
2022-09-14T12:19:50.267Z,4.95
2022-09-14T12:23:57.863Z,2.97
2022-09-14T12:28:01.194Z,3.85
2022-09-14T12:32:07.152Z,2.85
2022-09-14T12:36:11.115Z,5.38
2022-09-14T12:40:46.245Z,2.72
2022-09-14T12:44:49.102Z,5.63
2022-09-14T12:49:02.766Z,2.95
2022-09-14T12:53:34.922Z,3.20
2022-09-14T12:57:47.203Z,4.55
2022-09-14T13:01:58.465Z,4.32
2022-09-14T13:06:34.758Z,8.25
2022-09-14T13:10:40.773Z,4.53
2022-09-14T13:14:50.124Z,3.03
2022-09-14T13:24:31.301Z,4.28
2022-09-14T13:28:34.461Z,5.10
2022-09-14T13:33:16.793Z,5.05
2022-09-14T13:37:21.434Z,5.57
2022-09-14T13:41:24.923Z,7.25
2022-09-14T13:45:28.194Z,4.72
2022-09-14T13:50:07.719Z,2.85
2022-09-14T13:54:29.477Z,7.68
2022-09-14T13:58:35.580Z,4.43
2022-09-14T14:02:40.961Z,3.42
2022-09-14T14:07:00.543Z,7.18
2022-09-14T14:11:05.806Z,4.57
2022-09-14T14:15:37.664Z,7.30
2022-09-14T14:19:41.419Z,6.88
2022-09-14T14:24:02.826Z,5.10
2022-09-14T14:28:17.483Z,3.13
2022-09-14T14:32:45.043Z,4.00
2022-09-14T14:36:50.022Z,3.50
2022-09-14T14:40:57.399Z,5.90
2022-09-14T14:45:01.717Z,5.80
2022-09-14T14:49:04.742Z,3.65
2022-09-14T14:53:07.950Z,3.78
2022-09-14T14:57:45.783Z,4.90
2022-09-14T15:01:49.102Z,6.38
2022-09-14T15:05:52.118Z,5.15
2022-09-14T15:10:29.191Z,4.55
2022-09-14T15:14:33.657Z,3.00
2022-09-14T15:18:36.444Z,5.20
2022-09-14T15:23:14.127Z,5.85
2022-09-14T15:27:16.950Z,7.32
2022-09-14T15:31:21.333Z,4.57
2022-09-14T15:35:58.372Z,7.15
2022-09-14T15:40:01.332Z,4.97
2022-09-14T15:44:04.818Z,10.45
2022-09-14T15:48:08.982Z,5.35
2022-09-14T15:52:43.191Z,6.60
2022-09-14T15:56:49.546Z,24.50
2022-09-14T16:00:52.498Z,12.15
2022-09-14T16:05:27.872Z,4.30
2022-09-14T16:09:30.682Z,14.50
2022-09-14T16:13:34.200Z,1.50
2022-09-14T16:17:37.118Z,1.73
2022-09-14T16:21:42.627Z,6.25
2022-09-14T16:25:45.503Z,6.28
2022-09-14T16:29:48.547Z,6.85
2022-09-14T16:34:26.578Z,5.53
2022-09-14T16:38:32.238Z,6.07
2022-09-14T16:42:35.076Z,2.97
2022-09-14T16:46:37.862Z,2.47
2022-09-14T16:51:15.774Z,5.00
2022-09-14T16:55:20.177Z,4.43
2022-09-14T16:59:23.425Z,3.10
2022-09-14T17:03:31.672Z,2.40
2022-09-14T17:08:02.709Z,5.90
2022-09-14T17:12:07.558Z,7.07
2022-09-14T17:16:12.640Z,8.68
2022-09-14T17:20:34.282Z,7.68
2022-09-14T17:24:37.309Z,3.65
2022-09-14T17:28:44.507Z,8.32
2022-09-14T17:32:47.648Z,9.02
2022-09-14T17:36:50.686Z,4.55
2022-09-14T17:40:54.201Z,3.75
2022-09-14T17:44:58.584Z,5.07
2022-09-14T17:49:32.064Z,4.55
2022-09-14T17:53:38.530Z,7.30
2022-09-14T17:57:41.880Z,6.75
2022-09-14T18:02:15.343Z,4.25
2022-09-14T18:06:20.272Z,4.90
2022-09-14T18:10:23.368Z,8.02
2022-09-14T18:14:26.984Z,5.38
2022-09-14T18:18:30.087Z,4.95
2022-09-14T18:22:34.562Z,4.43
2022-09-14T18:26:38.546Z,6.25
2022-09-14T18:31:16.751Z,4.32
2022-09-14T18:35:19.794Z,10.18
2022-09-14T18:39:24.194Z,10.15
2022-09-14T18:43:27.212Z,6.72
2022-09-14T18:48:03.977Z,6.30
2022-09-14T18:52:07.482Z,10.70
2022-09-14T18:56:13.544Z,8.43
2022-09-14T19:00:47.534Z,5.03
2022-09-14T19:04:51.291Z,9.43
2022-09-14T19:08:54.430Z,7.65
2022-09-14T19:13:32.902Z,5.57
2022-09-14T19:17:35.942Z,6.28
2022-09-14T19:21:39.125Z,6.30
2022-09-14T19:25:44.436Z,8.07
2022-09-14T19:29:48.793Z,8.35
2022-09-14T19:33:52.438Z,10.05
2022-09-14T19:38:30.191Z,9.80
2022-09-14T19:42:33.247Z,14.45
2022-09-14T19:46:39.673Z,11.07
2022-09-14T19:50:43.136Z,9.52
2022-09-14T19:55:20.193Z,9.20
2022-09-14T19:59:23.387Z,9.23
2022-09-14T20:03:27.805Z,13.82
2022-09-14T20:07:30.939Z,6.53
2022-09-14T20:11:35.595Z,7.57
2022-09-14T20:15:38.751Z,11.45
2022-09-14T20:19:43.210Z,5.40
2022-09-14T20:24:19.299Z,5.78
2022-09-14T20:28:27.207Z,12.52
2022-09-14T20:32:31.197Z,4.68
2022-09-14T20:37:06.730Z,8.20
2022-09-14T20:41:11.291Z,9.48
2022-09-14T20:45:15.335Z,6.65
2022-09-14T20:49:20.859Z,6.80
2022-09-14T20:53:56.380Z,10.15
2022-09-14T20:58:00.786Z,6.75
2022-09-14T21:02:05.662Z,9.98
2022-09-14T21:06:10.722Z,6.85
2022-09-14T21:10:44.254Z,7.47
2022-09-14T21:14:48.784Z,9.45
2022-09-14T21:18:55.572Z,5.28
2022-09-14T21:23:29.611Z,7.22
2022-09-14T21:27:32.655Z,6.28
2022-09-14T21:31:39.154Z,6.80
2022-09-14T21:36:11.962Z,8.13
2022-09-14T21:40:15.388Z,6.32
2022-09-14T21:44:18.521Z,9.52
2022-09-14T21:48:22.933Z,4.80
2022-09-14T21:52:25.989Z,7.88
2022-09-14T21:57:03.024Z,5.60
2022-09-14T22:01:06.398Z,7.88
2022-09-14T22:05:12.059Z,11.82
2022-09-14T22:09:16.900Z,6.68
2022-09-14T22:13:50.563Z,10.05
2022-09-14T22:17:53.658Z,11.45
2022-09-14T22:21:58.500Z,5.45
2022-09-14T22:26:05.617Z,5.18
2022-09-14T22:30:44.793Z,9.45
2022-09-14T22:34:49.881Z,9.60
2022-09-14T22:38:56.698Z,3.13
2022-09-14T22:43:00.139Z,5.20
2022-09-14T22:47:03.173Z,4.50
2022-09-14T22:51:08.089Z,7.03
2022-09-14T22:55:44.832Z,8.25
2022-09-14T22:59:47.837Z,7.68
2022-09-14T23:03:55.908Z,6.47
2022-09-14T23:07:59.206Z,14.93
2022-09-14T23:12:38.013Z,5.13
2022-09-14T23:16:41.241Z,7.82
2022-09-14T23:20:46.090Z,10.60
2022-09-14T23:24:49.217Z,13.95
2022-09-14T23:28:55.466Z,4.82
2022-09-14T23:32:59.117Z,6.55
2022-09-14T23:37:02.287Z,5.50
2022-09-14T23:41:05.441Z,9.20
2022-09-14T23:45:11.141Z,5.38
2022-09-14T23:49:14.958Z,7.78
2022-09-14T23:53:18.117Z,12.18
2022-09-14T23:57:21.274Z,11.75
